This is the latest recevied weather packets stored in our database for station/object SP3SWJ-13. If no packets are shown the sender has not sent any weather packets the latest 10 day(s).
| Time | Temp. | Humidity | Pressure | Rain* | Wind** | Luminosity | Snow |
|---|---|---|---|---|---|---|---|
| 1777372723 | 12.78° C | 24% | 1017 hPa | - | - | 709 W/m² | - |
| 1777372422 | 12.78° C | 24% | 1017 hPa | - | - | 697 W/m² | - |
| 1777372121 | 12.22° C | 27% | 1017 hPa | - | - | 697 W/m² | - |
| 1777371820 | 11.67° C | 29% | 1017 hPa | - | - | 689 W/m² | - |
| 1777371519 | 11.67° C | 29% | 1017 hPa | - | - | 703 W/m² | - |
| 1777371218 | 11.67° C | 29% | 1017.1 hPa | - | - | 703 W/m² | - |
| 1777370917 | 10.56° C | 30% | 1017.1 hPa | - | - | 696 W/m² | - |
| 1777370616 | 10° C | 32% | 1017.1 hPa | - | - | 685 W/m² | - |
| 1777370315 | 10.56° C | 30% | 1017.2 hPa | - | - | 678 W/m² | - |
| 1777370014 | 10.56° C | 30% | 1017.2 hPa | - | - | 672 W/m² | - |
| 1777369713 | 10.56° C | 28% | 1017.2 hPa | - | - | 669 W/m² | - |
| 1777369412 | 10.56° C | 29% | 1017.2 hPa | - | - | 667 W/m² | - |
| 1777369111 | 10.56° C | 30% | 1017.3 hPa | - | - | 664 W/m² | - |
| 1777368810 | 11.67° C | 28% | 1017.3 hPa | - | - | 662 W/m² | - |
| 1777368509 | 11.67° C | 30% | 1017.2 hPa | - | - | 652 W/m² | - |
| 1777368209 | 11.11° C | 31% | 1017.2 hPa | - | - | 643 W/m² | - |
| 1777367908 | 10.56° C | 29% | 1017.2 hPa | - | - | 639 W/m² | - |
| 1777367606 | 10° C | 30% | 1017.3 hPa | - | - | 635 W/m² | - |
| 1777367306 | 9.44° C | 32% | 1017.4 hPa | - | - | 625 W/m² | - |
| 1777367004 | 10° C | 31% | 1017.5 hPa | - | - | 622 W/m² | - |
| 1777366703 | 10.56° C | 30% | 1017.5 hPa | - | - | 612 W/m² | - |
| 1777366402 | 10.56° C | 30% | 1017.5 hPa | - | - | 600 W/m² | - |
| 1777366101 | 10.56° C | 30% | 1017.4 hPa | - | - | 588 W/m² | - |
| 1777365800 | 10° C | 31% | 1017.5 hPa | - | - | 568 W/m² | - |
| 1777365499 | 9.44° C | 32% | 1017.4 hPa | - | - | 551 W/m² | - |
* Rain since midnight (hover to see other rain measurements)
** Current wind speed in m/s (hover to see current wind gust speed)